createdAt,value
2022-09-18T00:01:13.376Z,10.20
2022-09-18T00:03:42.381Z,9.30
2022-09-18T00:06:14.069Z,8.40
2022-09-18T00:08:43.664Z,7.37
2022-09-18T00:11:14.151Z,11.87
2022-09-18T00:13:43.590Z,11.23
2022-09-18T00:16:14.181Z,9.67
2022-09-18T00:18:42.493Z,9.03
2022-09-18T00:21:14.315Z,10.77
2022-09-18T00:23:42.611Z,8.47
2022-09-18T00:26:12.093Z,9.53
2022-09-18T00:28:40.431Z,10.63
2022-09-18T00:31:10.091Z,7.80
2022-09-18T00:33:39.315Z,11.50
2022-09-18T00:36:09.399Z,7.87
2022-09-18T00:38:38.989Z,9.73
2022-09-18T00:41:09.860Z,11.33
2022-09-18T00:43:38.777Z,9.33
2022-09-18T00:46:09.714Z,11.20
2022-09-18T00:48:45.776Z,11.07
2022-09-18T00:51:15.600Z,9.93
2022-09-18T00:53:51.732Z,8.70
2022-09-18T00:56:19.906Z,9.77
2022-09-18T00:58:48.212Z,9.67
2022-09-18T01:01:16.242Z,11.47
2022-09-18T01:03:44.425Z,9.73
2022-09-18T01:06:16.610Z,10.80
2022-09-18T01:08:56.861Z,8.10
2022-09-18T01:11:33.114Z,9.07
2022-09-18T01:14:17.886Z,9.73
2022-09-18T01:16:52.338Z,9.07
2022-09-18T01:19:37.676Z,9.33
2022-09-18T01:22:19.161Z,7.23
2022-09-18T01:25:08.376Z,9.83
2022-09-18T01:27:48.062Z,10.07
2022-09-18T01:30:16.104Z,8.03
2022-09-18T01:32:49.507Z,10.00
2022-09-18T01:35:40.502Z,8.77
2022-09-18T01:38:16.720Z,8.60
2022-09-18T01:40:49.848Z,9.37
2022-09-18T01:43:21.759Z,11.20
2022-09-18T01:45:53.053Z,9.83
2022-09-18T01:48:27.587Z,7.87
2022-09-18T01:51:01.296Z,7.97
2022-09-18T01:53:33.872Z,6.83
2022-09-18T01:56:07.305Z,13.27
2022-09-18T01:58:37.960Z,8.67
2022-09-18T02:01:13.273Z,6.03
2022-09-18T02:03:45.370Z,9.67
2022-09-18T02:06:17.046Z,10.87
2022-09-18T02:08:47.880Z,10.93
2022-09-18T02:11:18.162Z,9.53
2022-09-18T02:13:52.638Z,11.90
2022-09-18T02:16:24.974Z,12.03
2022-09-18T02:18:57.741Z,9.67
2022-09-18T02:21:29.750Z,11.87
2022-09-18T02:24:02.056Z,8.83
2022-09-18T02:26:30.528Z,8.47
2022-09-18T02:29:01.682Z,9.03
2022-09-18T02:31:30.111Z,12.97
2022-09-18T02:33:58.111Z,9.03
2022-09-18T02:36:48.357Z,9.97
2022-09-18T02:39:28.180Z,9.30
2022-09-18T02:42:06.124Z,8.07
2022-09-18T02:44:43.826Z,9.77
2022-09-18T02:47:21.177Z,11.87
2022-09-18T02:50:01.174Z,14.53
2022-09-18T02:52:36.673Z,8.10
2022-09-18T02:55:11.410Z,12.13
2022-09-18T02:57:42.095Z,9.77
2022-09-18T03:00:18.593Z,8.53
2022-09-18T03:02:47.507Z,8.77
2022-09-18T03:05:15.471Z,9.83
2022-09-18T03:07:43.492Z,9.77
2022-09-18T03:10:13.124Z,7.63
2022-09-18T03:12:41.099Z,10.83
2022-09-18T03:15:12.073Z,11.47
2022-09-18T03:17:40.056Z,12.53
2022-09-18T03:20:08.898Z,12.77
2022-09-18T03:22:36.876Z,12.70
2022-09-18T03:25:05.296Z,11.30
2022-09-18T03:27:33.303Z,12.67
2022-09-18T03:30:01.273Z,15.73
2022-09-18T03:32:30.609Z,12.67
2022-09-18T03:34:58.537Z,13.03
2022-09-18T03:37:26.482Z,12.33
2022-09-18T03:39:54.486Z,10.80
2022-09-18T03:42:22.491Z,12.13
2022-09-18T03:44:50.459Z,17.60
2022-09-18T03:47:18.455Z,14.53
2022-09-18T03:49:47.793Z,11.90
2022-09-18T03:52:15.765Z,16.77
2022-09-18T03:54:43.743Z,13.83
2022-09-18T03:57:11.713Z,14.43
2022-09-18T03:59:39.691Z,16.20
2022-09-18T04:02:09.017Z,12.93
2022-09-18T04:04:37.023Z,12.50
2022-09-18T04:07:08.215Z,13.13
2022-09-18T04:09:36.190Z,11.43
2022-09-18T04:12:04.433Z,12.20
2022-09-18T04:14:32.395Z,9.30
2022-09-18T04:17:00.385Z,9.67
2022-09-18T04:19:28.746Z,11.43
2022-09-18T04:21:56.767Z,6.87
2022-09-18T04:24:26.069Z,8.97
2022-09-18T04:26:54.057Z,11.57
2022-09-18T04:29:22.064Z,11.87
2022-09-18T04:31:50.106Z,11.83
2022-09-18T04:34:18.155Z,10.73
2022-09-18T04:36:46.119Z,8.13
2022-09-18T04:39:14.234Z,11.20
2022-09-18T04:41:45.494Z,10.50
2022-09-18T04:44:13.481Z,9.77
2022-09-18T04:46:41.452Z,10.70
2022-09-18T04:49:09.412Z,12.20
2022-09-18T04:51:37.354Z,11.03
2022-09-18T04:54:05.616Z,12.97
2022-09-18T04:56:33.614Z,12.87
2022-09-18T04:59:03.157Z,12.83
2022-09-18T05:01:31.569Z,10.13
2022-09-18T05:03:59.515Z,8.27
2022-09-18T05:06:27.551Z,9.37
2022-09-18T05:08:55.486Z,10.80
2022-09-18T05:11:24.003Z,10.37
2022-09-18T05:13:56.569Z,11.83
2022-09-18T05:16:26.270Z,11.73
2022-09-18T05:18:54.718Z,11.50
2022-09-18T05:21:22.716Z,9.17
2022-09-18T05:23:50.640Z,10.73
2022-09-18T05:26:18.617Z,8.07
2022-09-18T05:28:50.005Z,8.87
2022-09-18T05:31:18.090Z,12.53
2022-09-18T05:33:47.436Z,10.37
2022-09-18T05:36:15.403Z,13.80
2022-09-18T05:38:43.911Z,10.13
2022-09-18T05:41:12.110Z,8.23
2022-09-18T05:43:40.115Z,13.30
2022-09-18T05:46:08.083Z,11.67
2022-09-18T05:48:36.094Z,11.17
2022-09-18T05:51:05.700Z,11.07
2022-09-18T05:53:33.643Z,11.33
2022-09-18T05:56:01.819Z,11.30
2022-09-18T05:58:29.793Z,13.20
2022-09-18T06:01:01.266Z,10.27
2022-09-18T06:03:29.217Z,12.60
2022-09-18T06:05:57.160Z,10.80
2022-09-18T06:08:26.489Z,12.83
2022-09-18T06:10:54.787Z,11.67
2022-09-18T06:13:22.832Z,10.10
2022-09-18T06:15:52.903Z,10.93
2022-09-18T06:18:21.096Z,9.90
2022-09-18T06:20:53.841Z,9.17
2022-09-18T06:23:24.289Z,11.07
2022-09-18T06:25:59.733Z,7.70
2022-09-18T06:28:28.661Z,10.43
2022-09-18T06:30:56.698Z,9.70
2022-09-18T06:33:24.668Z,11.47
2022-09-18T06:35:52.720Z,8.90
2022-09-18T06:38:20.653Z,10.83
2022-09-18T06:40:53.200Z,9.73
2022-09-18T06:43:22.751Z,9.23
2022-09-18T06:45:54.111Z,12.50
2022-09-18T06:48:22.397Z,10.53
2022-09-18T06:50:54.586Z,10.63
2022-09-18T06:53:23.316Z,8.93
2022-09-18T06:55:51.837Z,12.77
2022-09-18T06:58:22.294Z,12.97
2022-09-18T07:00:50.423Z,8.17
2022-09-18T07:03:18.482Z,10.63
2022-09-18T07:05:46.578Z,9.13
2022-09-18T07:08:14.805Z,9.33
2022-09-18T07:10:42.779Z,9.03
2022-09-18T07:13:10.744Z,10.20
2022-09-18T07:15:40.081Z,11.70
2022-09-18T07:18:09.183Z,9.93
2022-09-18T07:20:37.125Z,9.50
2022-09-18T07:23:05.337Z,9.57
2022-09-18T07:25:33.939Z,9.93
2022-09-18T07:28:07.833Z,8.43
2022-09-18T07:30:36.061Z,8.73
2022-09-18T07:33:07.057Z,8.33
2022-09-18T07:35:35.534Z,10.37
2022-09-18T07:38:07.777Z,9.80
2022-09-18T07:40:36.161Z,9.67
2022-09-18T07:43:06.545Z,10.33
2022-09-18T07:45:35.238Z,8.40
2022-09-18T07:48:06.530Z,9.20
2022-09-18T07:50:35.113Z,8.20
2022-09-18T07:53:05.472Z,7.67
2022-09-18T07:55:36.094Z,10.60
2022-09-18T07:58:06.093Z,7.43
2022-09-18T08:00:36.009Z,6.57
2022-09-18T08:03:06.814Z,5.97
2022-09-18T08:05:35.097Z,7.47
2022-09-18T08:08:05.152Z,6.75
2022-09-18T08:10:34.122Z,7.03
2022-09-18T08:13:03.743Z,6.47
2022-09-18T08:15:32.022Z,6.80
2022-09-18T08:18:00.234Z,5.73
2022-09-18T08:20:29.669Z,7.30
2022-09-18T08:22:58.536Z,5.87
2022-09-18T08:25:28.194Z,6.03
2022-09-18T08:27:59.383Z,5.53
2022-09-18T08:30:27.439Z,5.82
2022-09-18T08:32:59.971Z,4.10
2022-09-18T08:35:29.468Z,4.68
2022-09-18T08:37:58.079Z,6.13
2022-09-18T08:40:43.759Z,5.43
2022-09-18T08:43:19.875Z,5.45
2022-09-18T08:45:56.069Z,5.90
2022-09-18T08:48:28.966Z,4.25
2022-09-18T08:51:04.667Z,4.13
2022-09-18T08:53:38.543Z,5.25
2022-09-18T08:56:13.558Z,4.40
2022-09-18T08:58:48.153Z,4.90
2022-09-18T09:01:19.057Z,5.80
2022-09-18T09:03:58.303Z,4.83
2022-09-18T09:06:47.145Z,6.05
2022-09-18T09:09:31.449Z,7.53
2022-09-18T09:12:08.634Z,5.50
2022-09-18T09:15:03.319Z,5.67
2022-09-18T09:17:42.692Z,5.83
2022-09-18T09:20:21.901Z,5.13
2022-09-18T09:23:01.774Z,6.20
2022-09-18T09:25:39.148Z,6.78
2022-09-18T09:28:16.813Z,5.13
2022-09-18T09:30:48.124Z,4.85
2022-09-18T09:33:22.781Z,4.55
2022-09-18T09:35:55.393Z,6.78
2022-09-18T09:38:43.219Z,6.15
2022-09-18T09:41:20.309Z,5.10
2022-09-18T09:43:58.642Z,6.30
2022-09-18T09:46:43.157Z,4.80
2022-09-18T09:49:15.165Z,4.97
2022-09-18T09:51:52.423Z,4.57
2022-09-18T09:54:21.775Z,4.20
2022-09-18T09:56:57.293Z,4.20
2022-09-18T09:59:31.928Z,4.80
2022-09-18T10:02:07.940Z,4.57
2022-09-18T10:04:43.384Z,4.05
2022-09-18T10:07:18.230Z,4.10
2022-09-18T10:09:53.982Z,5.27
2022-09-18T10:12:27.866Z,4.53
2022-09-18T10:15:06.416Z,6.43
2022-09-18T10:17:37.886Z,5.65
2022-09-18T10:20:07.555Z,5.03
2022-09-18T10:22:37.509Z,4.72
2022-09-18T10:25:16.208Z,4.97
2022-09-18T10:27:44.207Z,5.40
2022-09-18T10:30:14.302Z,4.90
2022-09-18T10:32:42.775Z,4.88
2022-09-18T10:35:42.527Z,8.90
2022-09-18T10:38:34.701Z,13.70
2022-09-18T10:41:28.284Z,11.05
2022-09-18T10:44:15.625Z,11.02
2022-09-18T10:46:53.623Z,14.90
2022-09-18T10:49:25.996Z,9.35
2022-09-18T10:52:20.055Z,9.57
2022-09-18T10:55:14.042Z,9.68
2022-09-18T10:57:45.362Z,6.25
2022-09-18T11:00:47.833Z,5.03
2022-09-18T11:03:26.800Z,6.00
2022-09-18T11:05:58.656Z,5.65
2022-09-18T11:08:29.547Z,5.15
2022-09-18T11:11:02.591Z,7.88
2022-09-18T11:13:32.994Z,7.47
2022-09-18T11:16:03.860Z,6.85
2022-09-18T11:18:33.381Z,7.32
2022-09-18T11:21:05.188Z,6.50
2022-09-18T11:23:35.253Z,5.55
2022-09-18T11:26:19.328Z,6.28
2022-09-18T11:29:04.875Z,6.28
2022-09-18T11:31:42.869Z,6.63
2022-09-18T11:34:21.881Z,4.30
2022-09-18T11:36:53.022Z,4.65
2022-09-18T11:39:27.294Z,4.63
2022-09-18T11:41:56.697Z,4.28
2022-09-18T11:44:29.203Z,4.22
2022-09-18T11:47:23.497Z,4.10
2022-09-18T11:49:56.666Z,4.03
2022-09-18T11:52:30.398Z,6.23
2022-09-18T11:55:02.428Z,4.10
2022-09-18T11:57:35.323Z,7.53
2022-09-18T12:00:09.086Z,4.60
2022-09-18T12:02:45.564Z,5.13
2022-09-18T12:05:21.814Z,13.83
2022-09-18T12:08:02.171Z,5.40
2022-09-18T12:10:50.330Z,4.70
2022-09-18T12:13:40.032Z,3.67
2022-09-18T12:16:17.108Z,4.30
2022-09-18T12:19:03.481Z,3.77
2022-09-18T12:21:39.661Z,4.87
2022-09-18T12:24:13.677Z,4.23
2022-09-18T12:26:56.489Z,3.20
2022-09-18T12:29:47.737Z,3.77
2022-09-18T12:32:29.021Z,3.83
2022-09-18T12:35:02.967Z,3.20
2022-09-18T12:37:51.368Z,3.83
2022-09-18T12:40:36.985Z,3.93
2022-09-18T12:43:25.112Z,6.17
2022-09-18T12:46:27.747Z,3.00
2022-09-18T12:49:11.392Z,4.63
2022-09-18T12:51:44.182Z,4.30
2022-09-18T12:54:23.805Z,3.87
2022-09-18T12:57:06.775Z,3.50
2022-09-18T12:59:46.503Z,4.57
2022-09-18T13:02:32.375Z,3.80
2022-09-18T13:05:05.546Z,4.83
2022-09-18T13:07:37.416Z,5.80
2022-09-18T13:10:11.651Z,5.77
2022-09-18T13:12:45.759Z,3.90
2022-09-18T13:15:18.229Z,5.00
2022-09-18T13:17:52.104Z,4.27
2022-09-18T13:20:26.149Z,10.10
2022-09-18T13:22:55.640Z,8.50
2022-09-18T13:25:29.467Z,8.40
2022-09-18T13:27:58.371Z,15.77
2022-09-18T13:30:29.024Z,10.57
2022-09-18T13:32:58.660Z,6.90
2022-09-18T13:35:31.058Z,8.13
2022-09-18T13:38:07.139Z,6.07
2022-09-18T13:40:38.407Z,15.80
2022-09-18T13:43:32.611Z,8.07
2022-09-18T13:46:06.590Z,5.90
2022-09-18T13:48:37.208Z,9.23
2022-09-18T13:51:09.447Z,9.77
2022-09-18T13:53:42.890Z,6.90
2022-09-18T13:56:12.409Z,6.63
2022-09-18T13:58:50.737Z,5.80
2022-09-18T14:01:54.768Z,7.20
2022-09-18T14:05:05.487Z,10.80
2022-09-18T14:08:01.048Z,7.90
2022-09-18T14:10:33.287Z,9.93
2022-09-18T14:13:32.924Z,10.47
2022-09-18T14:16:06.054Z,7.47
2022-09-18T14:18:40.831Z,10.47
2022-09-18T14:21:21.306Z,7.50
2022-09-18T14:24:19.239Z,14.37
2022-09-18T14:27:12.904Z,9.03
2022-09-18T14:29:41.154Z,10.57
2022-09-18T14:32:19.237Z,11.57
2022-09-18T14:34:47.221Z,9.80
2022-09-18T14:37:24.781Z,13.30
2022-09-18T14:39:55.869Z,9.10
2022-09-18T14:42:33.118Z,7.83
2022-09-18T14:45:24.184Z,11.90
2022-09-18T14:47:52.586Z,8.03
2022-09-18T14:50:30.049Z,9.17
2022-09-18T14:52:59.618Z,11.63
2022-09-18T14:55:35.834Z,12.27
2022-09-18T14:58:08.236Z,13.87
2022-09-18T15:00:38.697Z,13.73
2022-09-18T15:03:09.932Z,15.93
2022-09-18T15:05:38.105Z,13.63
2022-09-18T15:08:09.090Z,12.50
2022-09-18T15:10:41.258Z,17.17
2022-09-18T15:13:10.827Z,12.07
2022-09-18T15:15:40.451Z,11.80
2022-09-18T15:18:20.445Z,15.65
2022-09-18T15:20:51.343Z,16.00
2022-09-18T15:23:26.877Z,12.60
2022-09-18T15:26:01.418Z,11.10
2022-09-18T15:28:33.260Z,9.77
2022-09-18T15:31:04.694Z,10.37
2022-09-18T15:33:34.460Z,10.40
2022-09-18T15:36:04.667Z,11.53
2022-09-18T15:38:40.867Z,11.83
2022-09-18T15:41:37.389Z,13.87
2022-09-18T15:44:06.316Z,13.20
2022-09-18T15:46:37.193Z,16.10
2022-09-18T15:49:28.762Z,16.67
2022-09-18T15:51:56.903Z,15.93
2022-09-18T15:54:26.953Z,12.37
2022-09-18T15:56:58.393Z,13.67
2022-09-18T15:59:30.312Z,11.70
2022-09-18T16:01:59.271Z,15.07
2022-09-18T16:04:32.929Z,15.33
2022-09-18T16:07:03.965Z,20.30
2022-09-18T16:09:41.394Z,17.23
2022-09-18T16:12:37.790Z,19.03
2022-09-18T16:15:23.179Z,11.67
2022-09-18T16:18:10.741Z,14.57
2022-09-18T16:20:40.714Z,16.90
2022-09-18T16:23:22.100Z,14.73
2022-09-18T16:26:06.994Z,17.70
2022-09-18T16:28:38.310Z,19.43
2022-09-18T16:31:06.632Z,19.27
2022-09-18T16:33:35.337Z,12.30
2022-09-18T16:36:05.786Z,19.13
2022-09-18T16:38:33.756Z,22.77
2022-09-18T16:41:02.203Z,18.77
2022-09-18T16:43:30.621Z,18.40
2022-09-18T16:46:00.065Z,18.13
2022-09-18T16:48:29.355Z,18.07
2022-09-18T16:50:57.366Z,16.97
2022-09-18T16:53:25.330Z,16.00
2022-09-18T16:55:57.183Z,16.10
2022-09-18T16:58:27.889Z,15.77
2022-09-18T17:00:55.915Z,18.80
2022-09-18T17:03:26.995Z,15.20
2022-09-18T17:05:55.094Z,14.60
2022-09-18T17:08:23.075Z,12.33
2022-09-18T17:10:51.021Z,11.70
2022-09-18T17:13:18.981Z,11.33
2022-09-18T17:15:46.925Z,14.60
2022-09-18T17:18:14.908Z,13.83
2022-09-18T17:20:44.550Z,17.17
2022-09-18T17:23:12.511Z,12.17
2022-09-18T17:25:40.523Z,15.50
2022-09-18T17:28:10.466Z,13.20
2022-09-18T17:30:42.250Z,19.03
2022-09-18T17:33:10.454Z,18.20
2022-09-18T17:35:38.651Z,17.10
2022-09-18T17:38:08.188Z,15.63
2022-09-18T17:40:36.165Z,18.90
2022-09-18T17:43:05.584Z,18.63
2022-09-18T17:45:34.026Z,13.80
2022-09-18T17:48:02.262Z,15.83
2022-09-18T17:50:30.204Z,19.90
2022-09-18T17:52:58.151Z,15.50
2022-09-18T17:55:28.445Z,12.47
2022-09-18T17:57:56.538Z,10.40
2022-09-18T18:00:26.195Z,8.90
2022-09-18T18:02:54.146Z,9.57
2022-09-18T18:05:22.151Z,11.07
2022-09-18T18:07:50.102Z,10.73
2022-09-18T18:10:18.159Z,11.17
2022-09-18T18:12:47.486Z,8.33
2022-09-18T18:15:15.532Z,10.60
2022-09-18T18:17:44.127Z,9.63
2022-09-18T18:20:12.255Z,12.80
2022-09-18T18:22:40.243Z,10.83
2022-09-18T18:25:09.749Z,10.77
2022-09-18T18:27:37.761Z,8.30
2022-09-18T18:30:08.819Z,10.77
2022-09-18T18:32:36.919Z,12.50
2022-09-18T18:35:05.546Z,12.00
2022-09-18T18:37:34.517Z,8.97
2022-09-18T18:40:02.807Z,9.17
2022-09-18T18:42:31.050Z,8.60
2022-09-18T18:44:59.066Z,12.27
2022-09-18T18:47:29.584Z,10.03
2022-09-18T18:49:58.024Z,8.80
2022-09-18T18:52:26.381Z,8.97
2022-09-18T18:54:54.334Z,10.03
2022-09-18T18:57:22.629Z,11.07
2022-09-18T18:59:50.877Z,11.80
2022-09-18T19:02:18.867Z,14.63
2022-09-18T19:04:48.174Z,14.57
2022-09-18T19:07:16.131Z,12.50
2022-09-18T19:09:44.111Z,15.10
2022-09-18T19:12:13.198Z,18.13
2022-09-18T19:14:41.492Z,15.23
2022-09-18T19:17:10.054Z,21.70
2022-09-18T19:19:37.979Z,22.83
2022-09-18T19:22:08.234Z,23.03
2022-09-18T19:24:36.279Z,24.63
2022-09-18T19:27:04.277Z,19.53
2022-09-18T19:29:32.304Z,22.87
2022-09-18T19:32:00.356Z,24.30
2022-09-18T19:34:28.343Z,23.07
2022-09-18T19:36:56.695Z,22.83
2022-09-18T19:39:26.379Z,29.40
2022-09-18T19:41:59.131Z,23.63
2022-09-18T19:44:31.690Z,25.17
2022-09-18T19:47:02.187Z,24.27
2022-09-18T19:49:33.448Z,22.47
2022-09-18T19:52:02.706Z,22.83
2022-09-18T19:54:32.073Z,26.27
2022-09-18T19:57:00.100Z,21.70
2022-09-18T19:59:28.213Z,20.63
2022-09-18T20:01:56.439Z,23.77
2022-09-18T20:04:24.460Z,19.43
2022-09-18T20:06:52.422Z,24.43
2022-09-18T20:09:20.599Z,24.40
2022-09-18T20:11:49.889Z,23.37
2022-09-18T20:14:18.378Z,24.83
2022-09-18T20:16:46.362Z,25.17
2022-09-18T20:19:14.332Z,24.40
2022-09-18T20:21:42.748Z,24.10
2022-09-18T20:24:10.755Z,20.07
2022-09-18T20:26:38.868Z,18.87
2022-09-18T20:29:08.276Z,23.90
2022-09-18T20:31:37.071Z,22.27
2022-09-18T20:34:05.382Z,19.57
2022-09-18T20:36:33.401Z,21.20
2022-09-18T20:39:02.382Z,18.23
2022-09-18T20:41:31.452Z,17.03
2022-09-18T20:44:05.001Z,21.10
2022-09-18T20:46:37.361Z,17.07
2022-09-18T20:49:06.361Z,18.50
2022-09-18T20:51:36.008Z,19.37
2022-09-18T20:54:06.985Z,19.67
2022-09-18T20:56:41.343Z,17.43
2022-09-18T20:59:10.660Z,15.47
2022-09-18T21:01:42.202Z,15.30
2022-09-18T21:04:16.969Z,15.53
2022-09-18T21:06:47.101Z,14.40
2022-09-18T21:09:15.502Z,14.10
2022-09-18T21:11:45.311Z,14.80
2022-09-18T21:14:15.452Z,14.03
2022-09-18T21:16:45.216Z,15.93
2022-09-18T21:19:14.886Z,13.50
2022-09-18T21:21:43.202Z,11.83
2022-09-18T21:24:11.392Z,13.00
2022-09-18T21:26:41.625Z,14.37
2022-09-18T21:29:13.473Z,13.27
2022-09-18T21:31:43.317Z,11.70
2022-09-18T21:34:14.779Z,10.17
2022-09-18T21:36:44.989Z,12.83
2022-09-18T21:39:14.499Z,13.87
2022-09-18T21:41:46.376Z,15.57
2022-09-18T21:44:16.018Z,9.40
2022-09-18T21:46:45.558Z,11.00
2022-09-18T21:49:16.272Z,12.90
2022-09-18T21:51:44.548Z,12.87
2022-09-18T21:54:15.865Z,12.00
2022-09-18T21:56:44.710Z,10.30
2022-09-18T21:59:13.238Z,13.73
2022-09-18T22:01:42.934Z,10.60
2022-09-18T22:04:12.113Z,13.10
2022-09-18T22:06:43.696Z,11.23
2022-09-18T22:09:14.053Z,12.20
2022-09-18T22:11:42.960Z,12.13
2022-09-18T22:14:13.006Z,10.47
2022-09-18T22:16:43.047Z,10.73
2022-09-18T22:19:11.454Z,10.07
2022-09-18T22:21:43.737Z,9.83
2022-09-18T22:24:15.158Z,13.23
2022-09-18T22:26:45.241Z,14.57
2022-09-18T22:29:17.036Z,13.83
2022-09-18T22:31:47.031Z,13.67
2022-09-18T22:34:17.367Z,11.63
2022-09-18T22:36:47.419Z,12.77
2022-09-18T22:39:16.803Z,11.50
2022-09-18T22:41:45.481Z,10.20
2022-09-18T22:44:14.767Z,12.23
2022-09-18T22:46:44.691Z,8.13
2022-09-18T22:49:14.777Z,8.70
2022-09-18T22:51:43.379Z,10.50
2022-09-18T22:54:15.110Z,8.83
2022-09-18T22:56:45.618Z,12.10
2022-09-18T22:59:14.600Z,7.63
2022-09-18T23:01:46.307Z,11.17
2022-09-18T23:04:15.543Z,8.50
2022-09-18T23:06:43.745Z,7.47
2022-09-18T23:09:14.238Z,8.57
2022-09-18T23:11:43.617Z,7.87
2022-09-18T23:14:15.298Z,7.83
2022-09-18T23:16:43.471Z,7.27
2022-09-18T23:19:16.675Z,6.97
2022-09-18T23:21:44.623Z,8.37
2022-09-18T23:24:16.078Z,8.40
2022-09-18T23:26:46.484Z,8.97
2022-09-18T23:29:16.196Z,7.33
2022-09-18T23:31:46.114Z,5.17
2022-09-18T23:34:16.612Z,7.53
2022-09-18T23:36:46.549Z,5.70
2022-09-18T23:39:20.120Z,6.17
2022-09-18T23:41:48.378Z,5.70
2022-09-18T23:44:18.055Z,4.63
2022-09-18T23:46:46.694Z,5.43
2022-09-18T23:49:15.716Z,4.30
2022-09-18T23:51:46.042Z,5.20
2022-09-18T23:54:19.485Z,6.07
2022-09-18T23:56:48.048Z,4.83
2022-09-18T23:59:20.760Z,5.63
